createdAt,value
2022-12-20T00:00:48.399Z,102425.28
2022-12-20T00:03:24.694Z,102422.59
2022-12-20T00:06:03.197Z,102419.25
2022-12-20T00:08:37.019Z,102423.34
2022-12-20T00:11:12.818Z,102416.22
2022-12-20T00:13:53.309Z,102409.16
2022-12-20T00:16:36.363Z,102408.59
2022-12-20T00:19:10.445Z,102400.31
2022-12-20T00:21:48.430Z,102399.84
2022-12-20T00:24:26.115Z,102402.53
2022-12-20T00:27:02.510Z,102398.56
2022-12-20T00:29:36.093Z,102401.56
2022-12-20T00:32:16.952Z,102400.31
2022-12-20T00:34:46.804Z,102404.19
2022-12-20T00:37:20.176Z,102389.81
2022-12-20T00:39:47.844Z,102393.44
2022-12-20T00:42:21.375Z,102400.41
2022-12-20T00:44:56.586Z,102395.09
2022-12-20T00:47:35.022Z,102385.16
2022-12-20T00:50:11.609Z,102390.91
2022-12-20T00:52:43.822Z,102396.63
2022-12-20T00:55:20.151Z,102391.66
2022-12-20T00:57:56.939Z,102401.13
2022-12-20T01:00:29.082Z,102401.50
2022-12-20T01:03:02.810Z,102400.31
2022-12-20T01:05:41.709Z,102393.50
2022-12-20T01:08:17.162Z,102392.00
2022-12-20T01:11:22.731Z,102394.81
2022-12-20T01:14:03.537Z,102382.44
2022-12-20T01:16:45.011Z,102382.50
2022-12-20T01:19:26.338Z,102390.13
2022-12-20T01:22:02.573Z,102377.91
2022-12-20T01:24:42.169Z,102374.19
2022-12-20T01:27:15.669Z,102372.69
2022-12-20T01:29:51.610Z,102368.81
2022-12-20T01:32:26.707Z,102367.19
2022-12-20T01:35:02.607Z,102376.59
2022-12-20T01:37:39.585Z,102370.81
2022-12-20T01:40:10.603Z,102373.19
2022-12-20T01:42:46.090Z,102369.91
2022-12-20T01:45:32.853Z,102367.59
2022-12-20T01:48:01.674Z,102371.72
2022-12-20T01:50:38.688Z,102375.00
2022-12-20T01:53:11.546Z,102366.38
2022-12-20T01:55:50.886Z,102360.03
2022-12-20T01:58:27.173Z,102359.91
2022-12-20T02:01:12.142Z,102351.19
2022-12-20T02:03:49.264Z,102336.94
2022-12-20T02:06:27.984Z,102331.47
2022-12-20T02:09:04.899Z,102327.53
2022-12-20T02:12:13.003Z,102326.09
2022-12-20T02:15:17.510Z,102329.56
2022-12-20T02:18:24.008Z,102321.16
2022-12-20T02:21:14.012Z,102311.72
2022-12-20T02:24:01.731Z,102317.50
2022-12-20T02:26:57.007Z,102312.69
2022-12-20T02:29:38.621Z,102311.56
2022-12-20T02:32:26.491Z,102309.22
2022-12-20T02:34:59.840Z,102312.31
2022-12-20T02:37:32.680Z,102313.16
2022-12-20T02:40:11.631Z,102306.91
2022-12-20T02:42:45.835Z,102316.31
2022-12-20T02:45:23.186Z,102313.16
2022-12-20T02:48:26.211Z,102311.03
2022-12-20T02:51:00.443Z,102311.75
2022-12-20T02:53:31.564Z,102310.66
2022-12-20T02:56:05.333Z,102308.22
2022-12-20T02:59:09.222Z,102313.72
2022-12-20T03:01:48.597Z,102299.59
2022-12-20T03:04:27.348Z,102304.34
2022-12-20T03:07:16.570Z,102297.03
2022-12-20T03:10:04.203Z,102295.63
2022-12-20T03:12:36.997Z,102293.75
2022-12-20T03:15:18.868Z,102292.19
2022-12-20T03:17:55.350Z,102279.69
2022-12-20T03:20:35.466Z,102292.63
2022-12-20T03:23:17.078Z,102290.56
2022-12-20T03:25:54.948Z,102279.50
2022-12-20T03:28:41.050Z,102294.44
2022-12-20T03:31:17.057Z,102288.16
2022-12-20T03:34:01.033Z,102288.28
2022-12-20T03:36:31.841Z,102295.19
2022-12-20T03:39:13.949Z,102280.81
2022-12-20T03:41:52.800Z,102278.69
2022-12-20T03:44:25.404Z,102274.69
2022-12-20T03:46:58.861Z,102282.09
2022-12-20T03:49:34.484Z,102281.09
2022-12-20T03:52:07.692Z,102284.97
2022-12-20T03:54:41.404Z,102283.88
2022-12-20T03:57:20.093Z,102281.75
2022-12-20T03:59:55.341Z,102281.06
2022-12-20T04:02:31.965Z,102285.53
2022-12-20T04:05:06.141Z,102281.38
2022-12-20T04:07:45.593Z,102279.81
2022-12-20T04:10:27.029Z,102277.75
2022-12-20T04:13:02.683Z,102278.13
2022-12-20T04:15:47.731Z,102280.88
2022-12-20T04:18:22.647Z,102273.25
2022-12-20T04:20:58.026Z,102275.38
2022-12-20T04:23:39.799Z,102272.88
2022-12-20T04:26:23.117Z,102271.03
2022-12-20T04:29:07.148Z,102277.38
2022-12-20T04:31:40.466Z,102272.88
2022-12-20T04:34:13.865Z,102266.16
2022-12-20T04:36:49.117Z,102262.88
2022-12-20T04:39:32.027Z,102258.53
2022-12-20T04:42:26.517Z,102254.22
2022-12-20T04:45:04.522Z,102246.22
2022-12-20T04:47:39.981Z,102245.41
2022-12-20T04:50:16.928Z,102237.31
2022-12-20T04:53:06.186Z,102236.81
2022-12-20T04:55:45.636Z,102245.97
2022-12-20T04:58:23.886Z,102240.81
2022-12-20T05:00:54.671Z,102235.88
2022-12-20T05:03:31.078Z,102242.31
2022-12-20T05:06:08.144Z,102235.50
2022-12-20T05:08:43.610Z,102242.56
2022-12-20T05:11:16.946Z,102237.38
2022-12-20T05:13:50.169Z,102240.56
2022-12-20T05:16:26.100Z,102243.75
2022-12-20T05:19:03.380Z,102238.75
2022-12-20T05:22:00.699Z,102234.09
2022-12-20T05:24:54.506Z,102234.22
2022-12-20T05:27:37.789Z,102234.34
2022-12-20T05:30:11.186Z,102237.63
2022-12-20T05:32:43.480Z,102237.16
2022-12-20T05:35:21.867Z,102239.38
2022-12-20T05:38:03.893Z,102233.75
2022-12-20T05:40:39.165Z,102239.00
2022-12-20T05:43:20.873Z,102227.91
2022-12-20T05:45:56.043Z,102230.50
2022-12-20T05:48:44.632Z,102222.03
2022-12-20T05:51:25.955Z,102230.97
2022-12-20T05:54:03.255Z,102224.03
2022-12-20T05:57:02.612Z,102220.28
2022-12-20T05:59:44.784Z,102215.44
2022-12-20T06:02:33.304Z,102207.00
2022-12-20T06:05:17.000Z,102215.09
2022-12-20T06:07:53.511Z,102210.75
2022-12-20T06:10:35.138Z,102213.72
2022-12-20T06:13:12.567Z,102217.72
2022-12-20T06:15:46.547Z,102219.91
2022-12-20T06:18:28.176Z,102208.88
2022-12-20T06:21:12.273Z,102211.56
2022-12-20T06:23:48.004Z,102215.41
2022-12-20T06:26:35.923Z,102220.69
2022-12-20T06:29:14.643Z,102214.03
2022-12-20T06:31:58.523Z,102217.91
2022-12-20T06:34:33.301Z,102209.34
2022-12-20T06:37:03.934Z,102212.84
2022-12-20T06:39:46.140Z,102220.59
2022-12-20T06:42:25.602Z,102219.78
2022-12-20T06:45:06.230Z,102219.66
2022-12-20T06:47:45.908Z,102219.91
2022-12-20T06:50:23.980Z,102220.97
2022-12-20T06:52:54.238Z,102224.72
2022-12-20T06:55:29.849Z,102223.22
2022-12-20T06:58:03.116Z,102219.44
2022-12-20T07:00:35.697Z,102225.78
2022-12-20T07:03:08.533Z,102222.97
2022-12-20T07:05:39.466Z,102220.59
2022-12-20T07:08:11.919Z,102224.66
2022-12-20T07:10:42.197Z,102229.22
2022-12-20T07:13:12.503Z,102232.81
2022-12-20T07:15:44.500Z,102223.34
2022-12-20T07:18:14.827Z,102236.38
2022-12-20T07:20:43.289Z,102223.56
2022-12-20T07:23:16.523Z,102230.16
2022-12-20T07:25:44.983Z,102218.16
2022-12-20T07:28:16.686Z,102221.75
2022-12-20T07:30:48.382Z,102232.50
2022-12-20T07:33:16.139Z,102227.34
2022-12-20T07:35:54.708Z,102223.69
2022-12-20T07:38:22.571Z,102221.63
2022-12-20T07:40:54.176Z,102220.84
2022-12-20T07:43:26.378Z,102216.25
2022-12-20T07:45:58.861Z,102217.13
2022-12-20T07:48:26.810Z,102218.81
2022-12-20T07:51:00.684Z,102214.94
2022-12-20T07:53:40.055Z,102222.81
2022-12-20T07:56:14.981Z,102222.16
2022-12-20T07:58:49.988Z,102220.41
2022-12-20T08:01:30.620Z,102221.88
2022-12-20T08:04:15.778Z,102221.25
2022-12-20T08:06:50.923Z,102225.69
2022-12-20T08:09:21.339Z,102224.53
2022-12-20T08:11:58.411Z,102227.25
2022-12-20T08:14:29.433Z,102223.69
2022-12-20T08:17:00.703Z,102223.72
2022-12-20T08:19:36.740Z,102228.53
2022-12-20T08:22:08.709Z,102228.94
2022-12-20T08:24:47.781Z,102221.16
2022-12-20T08:27:21.585Z,102230.63
2022-12-20T08:29:55.266Z,102226.69
2022-12-20T08:32:23.042Z,102222.59
2022-12-20T08:34:56.978Z,102230.69
2022-12-20T08:37:24.660Z,102231.44
2022-12-20T08:39:55.253Z,102224.03
2022-12-20T08:42:32.281Z,102233.03
2022-12-20T08:45:02.999Z,102234.75
2022-12-20T08:47:39.874Z,102228.59
2022-12-20T08:50:11.279Z,102241.63
2022-12-20T08:52:42.071Z,102238.78
2022-12-20T08:55:13.023Z,102234.28
2022-12-20T08:57:47.151Z,102233.78
2022-12-20T09:00:18.552Z,102234.38
2022-12-20T09:02:55.204Z,102242.47
2022-12-20T09:05:30.913Z,102235.44
2022-12-20T09:07:59.972Z,102234.19
2022-12-20T09:10:30.723Z,102233.09
2022-12-20T09:12:58.659Z,102244.28
2022-12-20T09:15:32.043Z,102246.94
2022-12-20T09:18:03.345Z,102242.06
2022-12-20T09:20:34.959Z,102240.00
2022-12-20T09:23:10.148Z,102242.06
2022-12-20T09:25:40.212Z,102227.78
2022-12-20T09:28:10.465Z,102238.13
2022-12-20T09:30:43.383Z,102226.94
2022-12-20T09:33:14.743Z,102231.44
2022-12-20T09:35:50.296Z,102221.28
2022-12-20T09:38:24.596Z,102234.09
2022-12-20T09:41:03.497Z,102232.28
2022-12-20T09:43:42.081Z,102217.97
2022-12-20T09:46:15.714Z,102218.72
2022-12-20T09:48:45.544Z,102209.59
2022-12-20T09:51:40.053Z,102203.28
2022-12-20T09:55:05.760Z,102206.97
2022-12-20T09:57:58.379Z,102212.28
2022-12-20T10:00:26.574Z,102206.09
2022-12-20T10:03:06.512Z,102212.97
2022-12-20T10:05:55.608Z,102208.09
2022-12-20T10:08:38.275Z,102211.28
2022-12-20T10:11:50.954Z,102198.75
2022-12-20T10:14:40.608Z,102182.38
2022-12-20T10:17:21.290Z,102176.75
2022-12-20T10:20:05.324Z,102171.75
2022-12-20T10:23:03.679Z,102162.78
2022-12-20T10:25:38.658Z,102157.03
2022-12-20T10:28:16.406Z,102161.34
2022-12-20T10:30:47.535Z,102160.88
2022-12-20T10:33:27.991Z,102158.53
2022-12-20T10:36:27.209Z,102148.06
2022-12-20T10:39:11.082Z,102144.06
2022-12-20T10:41:47.661Z,102148.19
2022-12-20T10:44:24.968Z,102148.56
2022-12-20T10:46:59.556Z,102146.81
2022-12-20T10:49:41.261Z,102136.19
2022-12-20T10:52:18.577Z,102136.31
2022-12-20T10:54:52.723Z,102128.91
2022-12-20T10:57:33.770Z,102121.38
2022-12-20T11:00:12.331Z,102122.53
2022-12-20T11:02:42.948Z,102109.34
2022-12-20T11:05:14.851Z,102108.91
2022-12-20T11:10:54.423Z,102098.09
2022-12-20T11:13:31.877Z,102088.81
2022-12-20T11:16:03.237Z,102078.84
2022-12-20T11:18:49.630Z,102091.50
2022-12-20T11:21:34.442Z,102085.72
2022-12-20T11:24:11.827Z,102081.16
2022-12-20T11:26:58.276Z,102066.72
2022-12-20T11:30:03.860Z,102078.22
2022-12-20T11:32:40.580Z,102079.44
2022-12-20T11:35:34.823Z,102072.88
2022-12-20T11:38:23.587Z,102070.84
2022-12-20T11:41:11.022Z,102057.22
2022-12-20T11:44:24.470Z,102059.38
2022-12-20T11:47:01.867Z,102060.91
2022-12-20T11:50:03.074Z,102052.63
2022-12-20T11:52:43.610Z,102045.50
2022-12-20T11:55:25.242Z,102042.69
2022-12-20T11:58:20.598Z,102054.41
2022-12-20T12:01:06.342Z,102053.84
2022-12-20T12:03:49.025Z,102045.84
2022-12-20T12:06:30.187Z,102045.84
2022-12-20T12:09:19.466Z,102039.84
2022-12-20T12:12:06.596Z,102036.38
2022-12-20T12:15:05.358Z,102025.31
2022-12-20T12:17:46.231Z,102031.06
2022-12-20T12:20:26.422Z,102032.16
2022-12-20T12:23:03.280Z,102035.44
2022-12-20T12:25:32.485Z,102021.69
2022-12-20T12:28:05.431Z,102025.22
2022-12-20T12:30:47.181Z,102020.06
2022-12-20T12:33:38.179Z,102011.00
2022-12-20T12:36:30.905Z,102017.47
2022-12-20T12:39:27.127Z,102008.09
2022-12-20T12:42:16.078Z,102012.56
2022-12-20T12:45:20.201Z,102001.25
2022-12-20T12:48:16.671Z,102003.84
2022-12-20T12:51:00.868Z,101997.72
2022-12-20T12:53:45.077Z,101997.38
2022-12-20T12:56:46.479Z,101998.53
2022-12-20T12:59:46.273Z,101996.09
2022-12-20T13:02:21.107Z,101991.25
2022-12-20T13:05:06.966Z,101992.69
2022-12-20T13:07:40.055Z,101980.69
2022-12-20T13:10:14.720Z,101981.41
2022-12-20T13:12:47.490Z,101980.22
2022-12-20T13:15:23.659Z,101981.41
2022-12-20T13:18:20.381Z,101966.81
2022-12-20T13:21:33.371Z,101974.13
2022-12-20T13:24:40.893Z,101963.19
2022-12-20T13:27:33.680Z,101966.56
2022-12-20T13:30:13.162Z,101962.13
2022-12-20T13:32:57.967Z,101952.09
2022-12-20T13:35:44.564Z,101957.38
2022-12-20T13:38:15.190Z,101957.00
2022-12-20T13:40:59.083Z,101956.09
2022-12-20T13:43:45.931Z,101957.38
2022-12-20T13:46:26.346Z,101950.47
2022-12-20T13:49:01.084Z,101941.41
2022-12-20T13:51:35.352Z,101955.13
2022-12-20T13:54:26.819Z,101944.56
2022-12-20T13:56:59.711Z,101943.94
2022-12-20T13:59:35.805Z,101945.38
2022-12-20T14:02:25.179Z,101949.41
2022-12-20T14:05:14.037Z,101945.09
2022-12-20T14:07:47.839Z,101948.50
2022-12-20T14:10:26.659Z,101938.75
2022-12-20T14:12:55.690Z,101944.22
2022-12-20T14:15:31.323Z,101944.94
2022-12-20T14:18:28.797Z,101946.56
2022-12-20T14:21:08.679Z,101945.25
2022-12-20T14:23:51.019Z,101941.41
2022-12-20T14:26:48.265Z,101937.16
2022-12-20T14:29:30.537Z,101935.19
2022-12-20T14:32:03.473Z,101927.06
2022-12-20T14:34:41.958Z,101933.25
2022-12-20T14:37:33.866Z,101933.47
2022-12-20T14:40:19.345Z,101931.28
2022-12-20T14:42:58.516Z,101927.94
2022-12-20T14:45:30.843Z,101930.97
2022-12-20T14:48:07.611Z,101923.25
2022-12-20T14:50:45.313Z,101928.81
2022-12-20T14:53:24.876Z,101927.00
2022-12-20T14:55:56.121Z,101915.72
2022-12-20T14:58:36.016Z,101908.06
2022-12-20T15:01:19.503Z,101916.06
2022-12-20T15:03:52.969Z,101921.38
2022-12-20T15:06:45.162Z,101912.78
2022-12-20T15:09:23.419Z,101911.44
2022-12-20T15:12:02.270Z,101904.78
2022-12-20T15:14:39.904Z,101904.41
2022-12-20T15:17:12.683Z,101911.53
2022-12-20T15:19:42.764Z,101907.78
2022-12-20T15:22:25.605Z,101907.53
2022-12-20T15:25:03.342Z,101899.31
2022-12-20T15:27:33.776Z,101904.84
2022-12-20T15:30:11.528Z,101906.16
2022-12-20T15:32:55.170Z,101911.69
2022-12-20T15:35:31.146Z,101901.38
2022-12-20T15:38:07.184Z,101905.78
2022-12-20T15:40:40.250Z,101899.75
2022-12-20T15:43:25.998Z,101906.69
2022-12-20T15:45:58.805Z,101904.59
2022-12-20T15:48:27.655Z,101910.59
2022-12-20T15:51:20.444Z,101905.31
2022-12-20T15:53:51.140Z,101902.03
2022-12-20T15:56:29.395Z,101904.59
2022-12-20T15:59:17.800Z,101900.41
2022-12-20T16:02:05.745Z,101901.22
2022-12-20T16:04:41.075Z,101909.34
2022-12-20T16:07:18.126Z,101902.84
2022-12-20T16:09:51.271Z,101907.34
2022-12-20T16:12:40.365Z,101892.66
2022-12-20T16:15:29.070Z,101898.16
2022-12-20T16:18:00.193Z,101899.25
2022-12-20T16:20:34.447Z,101901.66
2022-12-20T16:23:08.345Z,101901.47
2022-12-20T16:25:39.203Z,101903.53
2022-12-20T16:28:11.031Z,101901.22
2022-12-20T16:30:43.443Z,101896.19
2022-12-20T16:33:25.158Z,101897.97
2022-12-20T16:35:58.425Z,101891.25
2022-12-20T16:38:29.392Z,101903.44
2022-12-20T16:41:15.080Z,101902.97
2022-12-20T16:43:47.061Z,101911.22
2022-12-20T16:46:23.471Z,101903.66
2022-12-20T16:48:51.369Z,101903.06
2022-12-20T16:51:29.772Z,101896.38
2022-12-20T16:54:21.761Z,101887.09
2022-12-20T16:56:58.064Z,101885.81
2022-12-20T16:59:26.453Z,101887.38
2022-12-20T17:01:57.578Z,101892.56
2022-12-20T17:04:31.778Z,101891.38
2022-12-20T17:07:13.992Z,101889.66
2022-12-20T17:09:56.323Z,101883.63
2022-12-20T17:12:36.273Z,101882.66
2022-12-20T17:15:09.120Z,101885.66
2022-12-20T17:17:51.573Z,101878.94
2022-12-20T17:20:31.086Z,101887.03
2022-12-20T17:23:17.234Z,101893.38
2022-12-20T17:25:56.704Z,101889.28
2022-12-20T17:28:33.363Z,101888.47
2022-12-20T17:31:17.723Z,101884.84
2022-12-20T17:33:55.683Z,101877.91
2022-12-20T17:36:29.755Z,101892.41
2022-12-20T17:39:09.452Z,101885.38
2022-12-20T17:41:44.921Z,101890.31
2022-12-20T17:44:25.220Z,101892.81
2022-12-20T17:47:03.983Z,101891.19
2022-12-20T17:49:51.046Z,101895.47
2022-12-20T17:52:34.409Z,101896.19
2022-12-20T17:55:09.403Z,101893.19
2022-12-20T17:57:45.996Z,101887.56
2022-12-20T18:00:39.217Z,101886.00
2022-12-20T18:04:02.434Z,101896.03
2022-12-20T18:06:29.778Z,101889.56
2022-12-20T18:09:03.657Z,101890.38
2022-12-20T18:11:39.807Z,101881.44
2022-12-20T18:14:18.183Z,101877.72
2022-12-20T18:16:50.904Z,101880.91
2022-12-20T18:19:27.142Z,101877.25
2022-12-20T18:22:00.151Z,101878.81
2022-12-20T18:24:33.598Z,101880.31
2022-12-20T18:27:09.232Z,101875.50
2022-12-20T18:29:44.046Z,101869.28
2022-12-20T18:32:25.407Z,101868.47
2022-12-20T18:35:01.762Z,101874.47
2022-12-20T18:37:36.096Z,101874.38
2022-12-20T18:40:07.304Z,101890.47
2022-12-20T18:42:40.422Z,101883.28
2022-12-20T18:45:17.362Z,101883.56
2022-12-20T18:47:56.448Z,101885.69
2022-12-20T18:50:35.552Z,101884.09
2022-12-20T18:53:19.302Z,101880.28
2022-12-20T18:55:54.443Z,101880.38
2022-12-20T18:58:24.832Z,101881.19
2022-12-20T19:01:06.268Z,101879.66
2022-12-20T19:03:34.136Z,101885.31
2022-12-20T19:06:10.868Z,101889.66
2022-12-20T19:08:46.487Z,101897.22
2022-12-20T19:11:23.205Z,101889.94
2022-12-20T19:14:04.429Z,101884.19
2022-12-20T19:16:42.509Z,101884.53
2022-12-20T19:19:15.440Z,101889.84
2022-12-20T19:21:48.389Z,101883.34
2022-12-20T19:24:21.659Z,101892.28
2022-12-20T19:26:51.631Z,101889.47
2022-12-20T19:29:27.221Z,101880.66
2022-12-20T19:32:02.827Z,101877.28
2022-12-20T19:34:39.115Z,101869.97
2022-12-20T19:37:13.230Z,101875.25
2022-12-20T19:39:53.861Z,101872.44
2022-12-20T19:42:30.128Z,101860.59
2022-12-20T19:45:03.729Z,101859.69
2022-12-20T19:47:46.027Z,101863.69
2022-12-20T19:50:27.824Z,101860.50
2022-12-20T19:53:05.120Z,101859.41
2022-12-20T19:55:39.283Z,101859.41
2022-12-20T19:58:19.678Z,101865.03
2022-12-20T20:00:57.224Z,101858.97
2022-12-20T20:03:33.668Z,101860.25
2022-12-20T20:06:14.270Z,101868.25
2022-12-20T20:08:45.756Z,101858.41
2022-12-20T20:11:22.194Z,101863.31
2022-12-20T20:14:03.310Z,101861.69
2022-12-20T20:16:37.287Z,101856.75
2022-12-20T20:19:07.474Z,101853.22
2022-12-20T20:21:41.275Z,101852.41
2022-12-20T20:24:19.212Z,101853.03
2022-12-20T20:26:52.500Z,101846.91
2022-12-20T20:29:28.426Z,101858.06
2022-12-20T20:32:07.692Z,101848.75
2022-12-20T20:34:45.944Z,101847.84
2022-12-20T20:37:16.868Z,101852.91
2022-12-20T20:39:55.723Z,101847.25
2022-12-20T20:42:31.332Z,101852.41
2022-12-20T20:45:07.446Z,101851.22
2022-12-20T20:47:44.163Z,101850.84
2022-12-20T20:50:23.865Z,101843.22
2022-12-20T20:52:55.973Z,101843.81
2022-12-20T20:55:26.132Z,101847.03
2022-12-20T20:57:59.057Z,101844.44
2022-12-20T21:00:32.621Z,101846.44
2022-12-20T21:03:05.639Z,101844.91
2022-12-20T21:06:14.035Z,101838.94
2022-12-20T21:08:35.147Z,101830.09
2022-12-20T21:11:09.485Z,101834.44
2022-12-20T21:13:47.074Z,101831.25
2022-12-20T21:16:20.943Z,101835.34
2022-12-20T21:19:03.207Z,101836.34
2022-12-20T21:21:41.512Z,101829.09
2022-12-20T21:24:14.203Z,101821.78
2022-12-20T21:26:44.158Z,101832.81
2022-12-20T21:29:16.306Z,101830.25
2022-12-20T21:31:50.081Z,101824.38
2022-12-20T21:34:28.272Z,101825.31
2022-12-20T21:37:07.345Z,101815.81
2022-12-20T21:39:46.123Z,101818.97
2022-12-20T21:42:20.221Z,101818.63
2022-12-20T21:44:56.237Z,101816.25
2022-12-20T21:47:34.659Z,101818.72
2022-12-20T21:50:09.835Z,101822.34
2022-12-20T21:52:48.479Z,101813.09
2022-12-20T21:55:22.350Z,101813.81
2022-12-20T21:58:01.410Z,101818.63
2022-12-20T22:00:40.129Z,101816.97
2022-12-20T22:03:15.818Z,101822.25
2022-12-20T22:05:50.387Z,101811.31
2022-12-20T22:08:35.347Z,101810.06
2022-12-20T22:11:20.819Z,101804.88
2022-12-20T22:13:57.548Z,101805.25
2022-12-20T22:16:34.900Z,101800.22
2022-12-20T22:19:06.432Z,101801.53
2022-12-20T22:21:45.290Z,101798.94
2022-12-20T22:24:24.027Z,101794.41
2022-12-20T22:26:57.000Z,101796.38
2022-12-20T22:29:32.317Z,101795.75
2022-12-20T22:32:04.935Z,101796.69
2022-12-20T22:34:37.891Z,101787.03
2022-12-20T22:37:11.344Z,101781.31
2022-12-20T22:39:47.119Z,101787.75
2022-12-20T22:42:26.066Z,101792.94
2022-12-20T22:44:58.911Z,101781.66
2022-12-20T22:47:34.607Z,101787.66
2022-12-20T22:50:04.854Z,101786.22
2022-12-20T22:52:41.081Z,101778.13
2022-12-20T22:55:18.514Z,101775.78
2022-12-20T22:57:51.522Z,101776.88
2022-12-20T23:00:24.800Z,101774.38
2022-12-20T23:02:59.474Z,101772.28
2022-12-20T23:05:31.734Z,101771.84
2022-12-20T23:08:07.521Z,101766.94
2022-12-20T23:10:59.085Z,101764.56
2022-12-20T23:13:53.532Z,101750.56
2022-12-20T23:16:28.970Z,101754.31
2022-12-20T23:19:03.257Z,101744.81
2022-12-20T23:21:59.216Z,101732.72
2022-12-20T23:24:34.392Z,101736.56
2022-12-20T23:27:10.350Z,101733.72
2022-12-20T23:29:37.873Z,101730.00
2022-12-20T23:32:08.828Z,101727.66
2022-12-20T23:34:41.587Z,101719.53
2022-12-20T23:37:11.938Z,101716.38
2022-12-20T23:39:44.767Z,101705.44
2022-12-20T23:42:23.505Z,101699.00
2022-12-20T23:45:03.453Z,101703.34
2022-12-20T23:47:50.362Z,101695.28
2022-12-20T23:50:28.272Z,101697.38
2022-12-20T23:52:58.665Z,101687.16
2022-12-20T23:55:34.526Z,101691.63
2022-12-20T23:58:05.372Z,101688.91
